sensor_id;sensor_type;location;lat;lon;timestamp;P1;durP1;ratioP1;P2;durP2;ratioP2
33824;SDS011;20127;48.962;8.342;2023-06-19T00:01:05;11.57;;;10.30;;
33824;SDS011;20127;48.962;8.342;2023-06-19T00:04:07;10.68;;;9.68;;
33824;SDS011;20127;48.962;8.342;2023-06-19T00:07:10;15.73;;;10.50;;
33824;SDS011;20127;48.962;8.342;2023-06-19T00:10:13;11.00;;;10.05;;
33824;SDS011;20127;48.962;8.342;2023-06-19T00:13:15;9.10;;;8.20;;
33824;SDS011;20127;48.962;8.342;2023-06-19T00:16:16;9.52;;;8.63;;
33824;SDS011;20127;48.962;8.342;2023-06-19T00:19:19;8.00;;;7.30;;
33824;SDS011;20127;48.962;8.342;2023-06-19T00:22:20;7.90;;;6.88;;
33824;SDS011;20127;48.962;8.342;2023-06-19T00:25:24;10.77;;;7.03;;
33824;SDS011;20127;48.962;8.342;2023-06-19T00:28:25;11.63;;;6.63;;
33824;SDS011;20127;48.962;8.342;2023-06-19T00:31:27;11.15;;;6.75;;
33824;SDS011;20127;48.962;8.342;2023-06-19T00:34:29;9.02;;;5.78;;
33824;SDS011;20127;48.962;8.342;2023-06-19T00:37:31;10.23;;;7.40;;
33824;SDS011;20127;48.962;8.342;2023-06-19T00:40:34;6.85;;;6.25;;
33824;SDS011;20127;48.962;8.342;2023-06-19T00:43:36;7.22;;;6.53;;
33824;SDS011;20127;48.962;8.342;2023-06-19T00:46:39;9.63;;;6.43;;
33824;SDS011;20127;48.962;8.342;2023-06-19T00:49:41;4.57;;;4.15;;
33824;SDS011;20127;48.962;8.342;2023-06-19T00:52:43;5.15;;;4.75;;
33824;SDS011;20127;48.962;8.342;2023-06-19T00:55:47;7.50;;;4.57;;
33824;SDS011;20127;48.962;8.342;2023-06-19T00:58:51;7.72;;;4.35;;
33824;SDS011;20127;48.962;8.342;2023-06-19T01:01:54;12.55;;;3.45;;
33824;SDS011;20127;48.962;8.342;2023-06-19T01:04:57;8.93;;;3.63;;
33824;SDS011;20127;48.962;8.342;2023-06-19T01:07:59;5.95;;;3.65;;
33824;SDS011;20127;48.962;8.342;2023-06-19T01:11:06;6.60;;;3.80;;
33824;SDS011;20127;48.962;8.342;2023-06-19T01:14:13;4.40;;;3.80;;
33824;SDS011;20127;48.962;8.342;2023-06-19T01:17:18;8.65;;;4.05;;
33824;SDS011;20127;48.962;8.342;2023-06-19T01:20:20;4.57;;;3.83;;
33824;SDS011;20127;48.962;8.342;2023-06-19T01:23:24;3.67;;;3.20;;
33824;SDS011;20127;48.962;8.342;2023-06-19T01:26:25;4.32;;;3.92;;
33824;SDS011;20127;48.962;8.342;2023-06-19T01:29:27;4.80;;;3.90;;
33824;SDS011;20127;48.962;8.342;2023-06-19T01:32:30;6.90;;;4.15;;
33824;SDS011;20127;48.962;8.342;2023-06-19T01:35:40;4.20;;;3.80;;
33824;SDS011;20127;48.962;8.342;2023-06-19T01:38:45;5.63;;;4.35;;
33824;SDS011;20127;48.962;8.342;2023-06-19T01:41:49;5.00;;;4.10;;
33824;SDS011;20127;48.962;8.342;2023-06-19T01:44:52;5.50;;;3.90;;
33824;SDS011;20127;48.962;8.342;2023-06-19T01:47:54;5.40;;;4.88;;
33824;SDS011;20127;48.962;8.342;2023-06-19T01:50:56;7.70;;;4.53;;
33824;SDS011;20127;48.962;8.342;2023-06-19T01:53:59;6.65;;;4.28;;
33824;SDS011;20127;48.962;8.342;2023-06-19T01:57:02;5.63;;;4.70;;
33824;SDS011;20127;48.962;8.342;2023-06-19T02:00:04;4.97;;;3.95;;
33824;SDS011;20127;48.962;8.342;2023-06-19T02:03:10;5.18;;;4.72;;
33824;SDS011;20127;48.962;8.342;2023-06-19T02:06:11;4.10;;;3.70;;
33824;SDS011;20127;48.962;8.342;2023-06-19T02:09:14;7.20;;;4.15;;
33824;SDS011;20127;48.962;8.342;2023-06-19T02:12:16;5.65;;;3.63;;
33824;SDS011;20127;48.962;8.342;2023-06-19T02:15:18;4.45;;;4.05;;
33824;SDS011;20127;48.962;8.342;2023-06-19T02:18:19;4.85;;;3.92;;
33824;SDS011;20127;48.962;8.342;2023-06-19T02:21:21;4.72;;;4.20;;
33824;SDS011;20127;48.962;8.342;2023-06-19T02:24:24;5.10;;;3.47;;
33824;SDS011;20127;48.962;8.342;2023-06-19T02:27:26;7.95;;;4.47;;
33824;SDS011;20127;48.962;8.342;2023-06-19T02:30:28;5.13;;;4.63;;
33824;SDS011;20127;48.962;8.342;2023-06-19T02:33:30;5.63;;;4.28;;
33824;SDS011;20127;48.962;8.342;2023-06-19T02:36:32;5.18;;;4.65;;
33824;SDS011;20127;48.962;8.342;2023-06-19T02:39:36;5.72;;;4.50;;
33824;SDS011;20127;48.962;8.342;2023-06-19T02:42:38;5.10;;;4.47;;
33824;SDS011;20127;48.962;8.342;2023-06-19T02:45:40;4.22;;;3.83;;
33824;SDS011;20127;48.962;8.342;2023-06-19T02:48:41;4.45;;;4.05;;
33824;SDS011;20127;48.962;8.342;2023-06-19T02:51:43;6.95;;;4.15;;
33824;SDS011;20127;48.962;8.342;2023-06-19T02:54:46;4.63;;;4.22;;
33824;SDS011;20127;48.962;8.342;2023-06-19T02:57:48;4.90;;;3.92;;
33824;SDS011;20127;48.962;8.342;2023-06-19T03:00:49;3.97;;;3.58;;
33824;SDS011;20127;48.962;8.342;2023-06-19T03:03:51;4.30;;;3.90;;
33824;SDS011;20127;48.962;8.342;2023-06-19T03:06:53;4.60;;;4.20;;
33824;SDS011;20127;48.962;8.342;2023-06-19T03:09:56;5.15;;;4.15;;
33824;SDS011;20127;48.962;8.342;2023-06-19T03:12:57;7.25;;;4.97;;
33824;SDS011;20127;48.962;8.342;2023-06-19T03:15:59;4.78;;;4.32;;
33824;SDS011;20127;48.962;8.342;2023-06-19T03:19:01;7.15;;;4.18;;
33824;SDS011;20127;48.962;8.342;2023-06-19T03:22:03;4.93;;;4.50;;
33824;SDS011;20127;48.962;8.342;2023-06-19T03:25:07;7.57;;;5.20;;
33824;SDS011;20127;48.962;8.342;2023-06-19T03:28:09;6.65;;;5.97;;
33824;SDS011;20127;48.962;8.342;2023-06-19T03:31:11;5.30;;;4.80;;
33824;SDS011;20127;48.962;8.342;2023-06-19T03:34:12;5.05;;;4.55;;
33824;SDS011;20127;48.962;8.342;2023-06-19T03:37:14;4.85;;;4.20;;
33824;SDS011;20127;48.962;8.342;2023-06-19T03:40:17;18.08;;;6.65;;
33824;SDS011;20127;48.962;8.342;2023-06-19T03:43:19;7.25;;;4.43;;
33824;SDS011;20127;48.962;8.342;2023-06-19T03:46:21;4.32;;;3.90;;
33824;SDS011;20127;48.962;8.342;2023-06-19T03:49:22;4.60;;;4.20;;
33824;SDS011;20127;48.962;8.342;2023-06-19T03:52:24;6.70;;;5.28;;
33824;SDS011;20127;48.962;8.342;2023-06-19T03:55:27;5.20;;;4.70;;
33824;SDS011;20127;48.962;8.342;2023-06-19T03:58:29;7.30;;;5.20;;
33824;SDS011;20127;48.962;8.342;2023-06-19T04:01:30;5.90;;;4.00;;
33824;SDS011;20127;48.962;8.342;2023-06-19T04:04:32;9.30;;;5.40;;
33824;SDS011;20127;48.962;8.342;2023-06-19T04:07:34;4.60;;;4.20;;
33824;SDS011;20127;48.962;8.342;2023-06-19T04:10:38;6.00;;;4.40;;
33824;SDS011;20127;48.962;8.342;2023-06-19T04:13:39;3.53;;;3.22;;
33824;SDS011;20127;48.962;8.342;2023-06-19T04:16:41;4.60;;;4.20;;
33824;SDS011;20127;48.962;8.342;2023-06-19T04:19:43;5.75;;;4.18;;
33824;SDS011;20127;48.962;8.342;2023-06-19T04:22:44;5.80;;;4.47;;
33824;SDS011;20127;48.962;8.342;2023-06-19T04:25:48;5.60;;;4.70;;
33824;SDS011;20127;48.962;8.342;2023-06-19T04:28:52;5.65;;;4.47;;
33824;SDS011;20127;48.962;8.342;2023-06-19T04:31:53;4.53;;;4.07;;
33824;SDS011;20127;48.962;8.342;2023-06-19T04:34:55;4.75;;;4.30;;
33824;SDS011;20127;48.962;8.342;2023-06-19T04:37:57;5.28;;;4.78;;
33824;SDS011;20127;48.962;8.342;2023-06-19T04:41:02;4.97;;;4.57;;
33824;SDS011;20127;48.962;8.342;2023-06-19T04:44:04;4.28;;;3.88;;
33824;SDS011;20127;48.962;8.342;2023-06-19T04:47:06;5.13;;;4.45;;
33824;SDS011;20127;48.962;8.342;2023-06-19T04:50:07;4.30;;;3.60;;
33824;SDS011;20127;48.962;8.342;2023-06-19T04:53:09;5.28;;;3.97;;
33824;SDS011;20127;48.962;8.342;2023-06-19T04:56:13;6.50;;;4.43;;
33824;SDS011;20127;48.962;8.342;2023-06-19T04:59:15;4.15;;;3.65;;
33824;SDS011;20127;48.962;8.342;2023-06-19T05:02:18;3.88;;;3.53;;
33824;SDS011;20127;48.962;8.342;2023-06-19T05:05:19;4.57;;;4.18;;
33824;SDS011;20127;48.962;8.342;2023-06-19T05:08:21;6.55;;;4.03;;
33824;SDS011;20127;48.962;8.342;2023-06-19T05:11:24;4.65;;;4.13;;
33824;SDS011;20127;48.962;8.342;2023-06-19T05:14:26;4.68;;;4.25;;
33824;SDS011;20127;48.962;8.342;2023-06-19T05:17:28;4.32;;;3.92;;
33824;SDS011;20127;48.962;8.342;2023-06-19T05:20:29;5.07;;;4.57;;
33824;SDS011;20127;48.962;8.342;2023-06-19T05:23:31;4.80;;;3.83;;
33824;SDS011;20127;48.962;8.342;2023-06-19T05:26:34;4.10;;;3.72;;
33824;SDS011;20127;48.962;8.342;2023-06-19T05:29:36;5.00;;;4.00;;
33824;SDS011;20127;48.962;8.342;2023-06-19T05:32:37;5.00;;;4.00;;
33824;SDS011;20127;48.962;8.342;2023-06-19T05:35:39;6.13;;;3.53;;
33824;SDS011;20127;48.962;8.342;2023-06-19T05:38:41;7.53;;;4.63;;
33824;SDS011;20127;48.962;8.342;2023-06-19T05:41:44;6.80;;;4.35;;
33824;SDS011;20127;48.962;8.342;2023-06-19T05:44:46;6.10;;;3.60;;
33824;SDS011;20127;48.962;8.342;2023-06-19T05:47:48;4.45;;;4.05;;
33824;SDS011;20127;48.962;8.342;2023-06-19T05:50:50;3.67;;;3.40;;
33824;SDS011;20127;48.962;8.342;2023-06-19T05:53:51;5.65;;;3.95;;
33824;SDS011;20127;48.962;8.342;2023-06-19T05:56:54;3.75;;;3.45;;
33824;SDS011;20127;48.962;8.342;2023-06-19T05:59:56;3.70;;;3.40;;
33824;SDS011;20127;48.962;8.342;2023-06-19T06:02:58;4.05;;;3.55;;
33824;SDS011;20127;48.962;8.342;2023-06-19T06:06:00;3.95;;;3.35;;
33824;SDS011;20127;48.962;8.342;2023-06-19T06:09:03;3.60;;;3.15;;
33824;SDS011;20127;48.962;8.342;2023-06-19T06:12:07;5.13;;;3.45;;
33824;SDS011;20127;48.962;8.342;2023-06-19T06:15:09;2.97;;;2.78;;
33824;SDS011;20127;48.962;8.342;2023-06-19T06:18:11;4.80;;;3.42;;
33824;SDS011;20127;48.962;8.342;2023-06-19T06:21:13;4.20;;;3.70;;
33824;SDS011;20127;48.962;8.342;2023-06-19T06:24:14;3.40;;;2.85;;
33824;SDS011;20127;48.962;8.342;2023-06-19T06:27:17;2.88;;;2.67;;
33824;SDS011;20127;48.962;8.342;2023-06-19T06:30:19;5.18;;;3.17;;
33824;SDS011;20127;48.962;8.342;2023-06-19T06:33:21;6.70;;;3.38;;
33824;SDS011;20127;48.962;8.342;2023-06-19T06:36:22;3.15;;;2.85;;
33824;SDS011;20127;48.962;8.342;2023-06-19T06:39:25;3.22;;;2.92;;
33824;SDS011;20127;48.962;8.342;2023-06-19T06:42:28;2.38;;;2.17;;
33824;SDS011;20127;48.962;8.342;2023-06-19T06:45:30;2.90;;;2.10;;
33824;SDS011;20127;48.962;8.342;2023-06-19T06:48:31;3.42;;;2.58;;
33824;SDS011;20127;48.962;8.342;2023-06-19T06:51:33;2.83;;;2.63;;
33824;SDS011;20127;48.962;8.342;2023-06-19T06:54:35;3.50;;;2.50;;
33824;SDS011;20127;48.962;8.342;2023-06-19T06:57:38;2.70;;;2.50;;
33824;SDS011;20127;48.962;8.342;2023-06-19T07:00:39;3.92;;;2.67;;
33824;SDS011;20127;48.962;8.342;2023-06-19T07:03:41;2.28;;;2.05;;
33824;SDS011;20127;48.962;8.342;2023-06-19T07:06:43;2.40;;;2.20;;
33824;SDS011;20127;48.962;8.342;2023-06-19T07:09:45;3.55;;;2.55;;
33824;SDS011;20127;48.962;8.342;2023-06-19T07:12:48;2.70;;;2.50;;
33824;SDS011;20127;48.962;8.342;2023-06-19T07:15:51;4.53;;;3.33;;
33824;SDS011;20127;48.962;8.342;2023-06-19T07:18:53;3.85;;;3.53;;
33824;SDS011;20127;48.962;8.342;2023-06-19T07:21:54;2.83;;;2.47;;
33824;SDS011;20127;48.962;8.342;2023-06-19T07:24:56;3.28;;;2.97;;
33824;SDS011;20127;48.962;8.342;2023-06-19T07:27:59;4.40;;;2.95;;
33824;SDS011;20127;48.962;8.342;2023-06-19T07:31:01;5.43;;;3.88;;
33824;SDS011;20127;48.962;8.342;2023-06-19T07:34:03;4.28;;;3.17;;
33824;SDS011;20127;48.962;8.342;2023-06-19T07:37:05;3.40;;;3.10;;
33824;SDS011;20127;48.962;8.342;2023-06-19T07:40:07;3.60;;;3.30;;
33824;SDS011;20127;48.962;8.342;2023-06-19T07:43:11;3.50;;;3.20;;
33824;SDS011;20127;48.962;8.342;2023-06-19T07:46:13;3.53;;;3.17;;
33824;SDS011;20127;48.962;8.342;2023-06-19T07:49:15;6.10;;;3.70;;
33824;SDS011;20127;48.962;8.342;2023-06-19T07:52:16;7.22;;;3.58;;
33824;SDS011;20127;48.962;8.342;2023-06-19T07:55:18;5.00;;;4.53;;
33824;SDS011;20127;48.962;8.342;2023-06-19T07:58:21;3.65;;;3.15;;
33824;SDS011;20127;48.962;8.342;2023-06-19T08:01:23;4.32;;;3.90;;
33824;SDS011;20127;48.962;8.342;2023-06-19T08:04:25;3.85;;;3.53;;
33824;SDS011;20127;48.962;8.342;2023-06-19T08:07:26;4.82;;;3.72;;
33824;SDS011;20127;48.962;8.342;2023-06-19T08:10:28;4.20;;;3.80;;
33824;SDS011;20127;48.962;8.342;2023-06-19T08:13:31;5.05;;;4.32;;
33824;SDS011;20127;48.962;8.342;2023-06-19T08:16:33;4.47;;;4.07;;
33824;SDS011;20127;48.962;8.342;2023-06-19T08:19:34;8.63;;;4.53;;
33824;SDS011;20127;48.962;8.342;2023-06-19T08:22:38;4.57;;;3.15;;
33824;SDS011;20127;48.962;8.342;2023-06-19T08:25:40;4.55;;;3.63;;
33824;SDS011;20127;48.962;8.342;2023-06-19T08:28:43;5.43;;;3.53;;
33824;SDS011;20127;48.962;8.342;2023-06-19T08:31:45;4.75;;;3.85;;
33824;SDS011;20127;48.962;8.342;2023-06-19T08:34:47;11.73;;;4.95;;
33824;SDS011;20127;48.962;8.342;2023-06-19T08:37:48;3.28;;;2.97;;
33824;SDS011;20127;48.962;8.342;2023-06-19T08:40:50;4.15;;;3.58;;
33824;SDS011;20127;48.962;8.342;2023-06-19T08:43:53;8.45;;;3.70;;
33824;SDS011;20127;48.962;8.342;2023-06-19T08:46:55;6.97;;;3.25;;
33824;SDS011;20127;48.962;8.342;2023-06-19T08:49:59;6.50;;;4.50;;
33824;SDS011;20127;48.962;8.342;2023-06-19T08:53:00;5.80;;;4.07;;
33824;SDS011;20127;48.962;8.342;2023-06-19T08:56:02;9.88;;;5.93;;
33824;SDS011;20127;48.962;8.342;2023-06-19T08:59:09;12.40;;;4.32;;
33824;SDS011;20127;48.962;8.342;2023-06-19T09:02:12;4.30;;;3.90;;
33824;SDS011;20127;48.962;8.342;2023-06-19T09:05:15;5.32;;;4.65;;
33824;SDS011;20127;48.962;8.342;2023-06-19T09:08:18;5.57;;;3.72;;
33824;SDS011;20127;48.962;8.342;2023-06-19T09:11:19;5.22;;;3.90;;
33824;SDS011;20127;48.962;8.342;2023-06-19T09:14:27;8.10;;;4.78;;
33824;SDS011;20127;48.962;8.342;2023-06-19T09:17:32;8.65;;;5.05;;
33824;SDS011;20127;48.962;8.342;2023-06-19T09:20:34;5.18;;;4.68;;
33824;SDS011;20127;48.962;8.342;2023-06-19T09:23:41;5.97;;;4.75;;
33824;SDS011;20127;48.962;8.342;2023-06-19T09:26:43;8.90;;;4.75;;
33824;SDS011;20127;48.962;8.342;2023-06-19T09:29:47;5.47;;;4.38;;
33824;SDS011;20127;48.962;8.342;2023-06-19T09:32:51;7.95;;;4.10;;
33824;SDS011;20127;48.962;8.342;2023-06-19T09:35:53;7.10;;;4.32;;
33824;SDS011;20127;48.962;8.342;2023-06-19T09:38:55;6.25;;;4.55;;
33824;SDS011;20127;48.962;8.342;2023-06-19T09:42:00;5.47;;;4.75;;
33824;SDS011;20127;48.962;8.342;2023-06-19T09:45:06;6.28;;;4.80;;
33824;SDS011;20127;48.962;8.342;2023-06-19T09:48:09;4.97;;;4.30;;
33824;SDS011;20127;48.962;8.342;2023-06-19T09:51:17;4.88;;;4.47;;
33824;SDS011;20127;48.962;8.342;2023-06-19T09:54:19;5.03;;;4.40;;
33824;SDS011;20127;48.962;8.342;2023-06-19T09:57:22;4.10;;;3.80;;
33824;SDS011;20127;48.962;8.342;2023-06-19T10:00:25;8.73;;;3.90;;
33824;SDS011;20127;48.962;8.342;2023-06-19T10:03:31;4.50;;;4.10;;
33824;SDS011;20127;48.962;8.342;2023-06-19T10:06:41;6.05;;;4.50;;
33824;SDS011;20127;48.962;8.342;2023-06-19T10:09:59;3.92;;;3.63;;
33824;SDS011;20127;48.962;8.342;2023-06-19T10:13:12;4.25;;;3.85;;
33824;SDS011;20127;48.962;8.342;2023-06-19T10:16:23;5.35;;;3.80;;
33824;SDS011;20127;48.962;8.342;2023-06-19T10:19:25;4.55;;;3.75;;
33824;SDS011;20127;48.962;8.342;2023-06-19T10:22:29;4.03;;;3.72;;
33824;SDS011;20127;48.962;8.342;2023-06-19T10:25:32;4.45;;;3.70;;
33824;SDS011;20127;48.962;8.342;2023-06-19T10:28:35;8.88;;;3.83;;
33824;SDS011;20127;48.962;8.342;2023-06-19T10:31:38;10.52;;;4.55;;
33824;SDS011;20127;48.962;8.342;2023-06-19T10:34:40;4.65;;;4.32;;
33824;SDS011;20127;48.962;8.342;2023-06-19T10:40:49;3.55;;;3.35;;
33824;SDS011;20127;48.962;8.342;2023-06-19T10:43:54;4.20;;;3.88;;
33824;SDS011;20127;48.962;8.342;2023-06-19T10:46:58;4.20;;;3.90;;
33824;SDS011;20127;48.962;8.342;2023-06-19T10:50:00;3.95;;;3.55;;
33824;SDS011;20127;48.962;8.342;2023-06-19T10:53:02;7.93;;;3.80;;
33824;SDS011;20127;48.962;8.342;2023-06-19T10:56:04;6.63;;;4.28;;
33824;SDS011;20127;48.962;8.342;2023-06-19T10:59:07;4.60;;;4.22;;
33824;SDS011;20127;48.962;8.342;2023-06-19T11:02:10;4.05;;;3.75;;
33824;SDS011;20127;48.962;8.342;2023-06-19T11:05:12;5.95;;;3.85;;
33824;SDS011;20127;48.962;8.342;2023-06-19T11:08:17;4.45;;;4.07;;
33824;SDS011;20127;48.962;8.342;2023-06-19T11:11:19;4.68;;;4.25;;
33824;SDS011;20127;48.962;8.342;2023-06-19T11:14:21;6.72;;;3.60;;
33824;SDS011;20127;48.962;8.342;2023-06-19T11:17:24;5.60;;;4.05;;
33824;SDS011;20127;48.962;8.342;2023-06-19T11:20:26;5.57;;;3.95;;
33824;SDS011;20127;48.962;8.342;2023-06-19T11:23:29;8.43;;;3.88;;
33824;SDS011;20127;48.962;8.342;2023-06-19T11:26:34;4.25;;;3.85;;
33824;SDS011;20127;48.962;8.342;2023-06-19T11:29:38;6.53;;;4.32;;
33824;SDS011;20127;48.962;8.342;2023-06-19T11:32:43;9.02;;;4.65;;
33824;SDS011;20127;48.962;8.342;2023-06-19T11:35:49;5.10;;;3.50;;
33824;SDS011;20127;48.962;8.342;2023-06-19T11:38:51;6.03;;;3.80;;
33824;SDS011;20127;48.962;8.342;2023-06-19T11:41:53;5.60;;;4.07;;
33824;SDS011;20127;48.962;8.342;2023-06-19T11:44:55;5.53;;;4.13;;
33824;SDS011;20127;48.962;8.342;2023-06-19T11:47:59;5.20;;;3.65;;
33824;SDS011;20127;48.962;8.342;2023-06-19T11:51:06;10.50;;;3.58;;
33824;SDS011;20127;48.962;8.342;2023-06-19T11:54:10;7.97;;;4.22;;
33824;SDS011;20127;48.962;8.342;2023-06-19T11:57:13;4.72;;;4.25;;
33824;SDS011;20127;48.962;8.342;2023-06-19T12:00:15;8.35;;;3.67;;
33824;SDS011;20127;48.962;8.342;2023-06-19T12:03:19;3.95;;;3.55;;
33824;SDS011;20127;48.962;8.342;2023-06-19T12:06:20;8.27;;;4.43;;
33824;SDS011;20127;48.962;8.342;2023-06-19T12:09:25;5.07;;;4.60;;
33824;SDS011;20127;48.962;8.342;2023-06-19T12:12:27;4.20;;;3.90;;
33824;SDS011;20127;48.962;8.342;2023-06-19T12:15:30;4.47;;;4.10;;
33824;SDS011;20127;48.962;8.342;2023-06-19T12:18:33;4.18;;;3.88;;
33824;SDS011;20127;48.962;8.342;2023-06-19T12:21:34;4.22;;;3.92;;
33824;SDS011;20127;48.962;8.342;2023-06-19T12:24:36;4.20;;;3.80;;
33824;SDS011;20127;48.962;8.342;2023-06-19T12:27:38;3.35;;;3.08;;
33824;SDS011;20127;48.962;8.342;2023-06-19T12:30:39;4.13;;;3.58;;
33824;SDS011;20127;48.962;8.342;2023-06-19T12:33:42;5.78;;;4.25;;
33824;SDS011;20127;48.962;8.342;2023-06-19T12:36:44;4.13;;;3.83;;
33824;SDS011;20127;48.962;8.342;2023-06-19T12:39:46;3.83;;;3.53;;
33824;SDS011;20127;48.962;8.342;2023-06-19T12:42:48;6.57;;;3.45;;
33824;SDS011;20127;48.962;8.342;2023-06-19T12:45:50;4.13;;;3.72;;
33824;SDS011;20127;48.962;8.342;2023-06-19T12:48:53;4.13;;;3.72;;
33824;SDS011;20127;48.962;8.342;2023-06-19T12:51:55;4.32;;;3.72;;
33824;SDS011;20127;48.962;8.342;2023-06-19T12:54:57;4.05;;;3.72;;
33824;SDS011;20127;48.962;8.342;2023-06-19T12:57:59;3.72;;;3.20;;
33824;SDS011;20127;48.962;8.342;2023-06-19T13:01:01;3.70;;;3.40;;
33824;SDS011;20127;48.962;8.342;2023-06-19T13:04:04;4.22;;;3.92;;
33824;SDS011;20127;48.962;8.342;2023-06-19T13:07:06;3.67;;;3.38;;
33824;SDS011;20127;48.962;8.342;2023-06-19T13:10:08;4.28;;;3.25;;
33824;SDS011;20127;48.962;8.342;2023-06-19T13:13:11;6.22;;;3.72;;
33824;SDS011;20127;48.962;8.342;2023-06-19T13:16:13;4.35;;;3.15;;
33824;SDS011;20127;48.962;8.342;2023-06-19T13:19:17;5.07;;;3.67;;
33824;SDS011;20127;48.962;8.342;2023-06-19T13:22:19;5.47;;;3.63;;
33824;SDS011;20127;48.962;8.342;2023-06-19T13:25:20;4.10;;;3.47;;
33824;SDS011;20127;48.962;8.342;2023-06-19T13:28:22;3.80;;;3.50;;
33824;SDS011;20127;48.962;8.342;2023-06-19T13:31:24;3.70;;;3.40;;
33824;SDS011;20127;48.962;8.342;2023-06-19T13:34:27;3.95;;;3.55;;
33824;SDS011;20127;48.962;8.342;2023-06-19T13:37:29;4.00;;;3.70;;
33824;SDS011;20127;48.962;8.342;2023-06-19T13:40:31;4.85;;;3.60;;
33824;SDS011;20127;48.962;8.342;2023-06-19T13:43:32;3.63;;;3.33;;
33824;SDS011;20127;48.962;8.342;2023-06-19T13:46:34;3.28;;;3.08;;
33824;SDS011;20127;48.962;8.342;2023-06-19T13:49:37;4.05;;;3.75;;
33824;SDS011;20127;48.962;8.342;2023-06-19T13:52:39;3.63;;;3.33;;
33824;SDS011;20127;48.962;8.342;2023-06-19T13:55:41;4.93;;;4.03;;
33824;SDS011;20127;48.962;8.342;2023-06-19T13:58:43;6.18;;;3.45;;
33824;SDS011;20127;48.962;8.342;2023-06-19T14:01:45;3.72;;;3.30;;
33824;SDS011;20127;48.962;8.342;2023-06-19T14:04:48;5.47;;;4.07;;
33824;SDS011;20127;48.962;8.342;2023-06-19T14:07:49;4.15;;;3.65;;
33824;SDS011;20127;48.962;8.342;2023-06-19T14:10:51;4.05;;;3.00;;
33824;SDS011;20127;48.962;8.342;2023-06-19T14:13:53;3.28;;;2.97;;
33824;SDS011;20127;48.962;8.342;2023-06-19T14:16:55;4.90;;;4.18;;
33824;SDS011;20127;48.962;8.342;2023-06-19T14:19:59;3.38;;;2.75;;
33824;SDS011;20127;48.962;8.342;2023-06-19T14:23:01;2.95;;;2.67;;
33824;SDS011;20127;48.962;8.342;2023-06-19T14:26:02;3.25;;;2.95;;
33824;SDS011;20127;48.962;8.342;2023-06-19T14:29:04;5.28;;;3.17;;
33824;SDS011;20127;48.962;8.342;2023-06-19T14:32:07;3.40;;;3.10;;
33824;SDS011;20127;48.962;8.342;2023-06-19T14:35:10;3.80;;;3.30;;
33824;SDS011;20127;48.962;8.342;2023-06-19T14:38:12;2.88;;;2.67;;
33824;SDS011;20127;48.962;8.342;2023-06-19T14:41:14;3.63;;;3.33;;
33824;SDS011;20127;48.962;8.342;2023-06-19T14:44:16;4.25;;;3.10;;
33824;SDS011;20127;48.962;8.342;2023-06-19T14:47:17;3.65;;;3.35;;
33824;SDS011;20127;48.962;8.342;2023-06-19T14:50:20;6.47;;;3.22;;
33824;SDS011;20127;48.962;8.342;2023-06-19T14:53:22;3.60;;;3.30;;
33824;SDS011;20127;48.962;8.342;2023-06-19T14:56:24;3.53;;;3.22;;
33824;SDS011;20127;48.962;8.342;2023-06-19T14:59:25;5.40;;;4.82;;
33824;SDS011;20127;48.962;8.342;2023-06-19T15:02:27;4.13;;;3.63;;
33824;SDS011;20127;48.962;8.342;2023-06-19T15:05:31;4.07;;;3.67;;
33824;SDS011;20127;48.962;8.342;2023-06-19T15:08:33;5.40;;;4.40;;
33824;SDS011;20127;48.962;8.342;2023-06-19T15:11:38;5.75;;;4.45;;
33824;SDS011;20127;48.962;8.342;2023-06-19T15:14:40;4.25;;;3.90;;
33824;SDS011;20127;48.962;8.342;2023-06-19T15:17:41;7.03;;;4.03;;
33824;SDS011;20127;48.962;8.342;2023-06-19T15:20:44;4.43;;;4.03;;
33824;SDS011;20127;48.962;8.342;2023-06-19T15:23:46;4.70;;;3.85;;
33824;SDS011;20127;48.962;8.342;2023-06-19T15:26:49;4.75;;;4.25;;
33824;SDS011;20127;48.962;8.342;2023-06-19T15:29:51;4.78;;;4.47;;
33824;SDS011;20127;48.962;8.342;2023-06-19T15:32:52;4.75;;;4.07;;
33824;SDS011;20127;48.962;8.342;2023-06-19T15:35:56;4.88;;;4.25;;
33824;SDS011;20127;48.962;8.342;2023-06-19T15:38:57;4.75;;;4.07;;
33824;SDS011;20127;48.962;8.342;2023-06-19T15:41:59;4.28;;;3.95;;
33824;SDS011;20127;48.962;8.342;2023-06-19T15:45:01;4.78;;;4.38;;
33824;SDS011;20127;48.962;8.342;2023-06-19T15:48:02;4.63;;;4.32;;
33824;SDS011;20127;48.962;8.342;2023-06-19T15:51:06;4.95;;;4.07;;
33824;SDS011;20127;48.962;8.342;2023-06-19T15:54:07;5.20;;;4.78;;
33824;SDS011;20127;48.962;8.342;2023-06-19T15:57:09;5.82;;;4.65;;
33824;SDS011;20127;48.962;8.342;2023-06-19T16:00:12;7.20;;;5.45;;
33824;SDS011;20127;48.962;8.342;2023-06-19T16:03:15;5.32;;;4.93;;
33824;SDS011;20127;48.962;8.342;2023-06-19T16:06:18;4.85;;;4.45;;
33824;SDS011;20127;48.962;8.342;2023-06-19T16:09:20;4.47;;;4.13;;
33824;SDS011;20127;48.962;8.342;2023-06-19T16:12:21;4.90;;;4.47;;
33824;SDS011;20127;48.962;8.342;2023-06-19T16:15:23;3.97;;;3.63;;
33824;SDS011;20127;48.962;8.342;2023-06-19T16:18:27;4.25;;;3.85;;
33824;SDS011;20127;48.962;8.342;2023-06-19T16:21:31;4.20;;;3.90;;
33824;SDS011;20127;48.962;8.342;2023-06-19T16:24:32;4.22;;;3.92;;
33824;SDS011;20127;48.962;8.342;2023-06-19T16:27:34;4.63;;;4.22;;
33824;SDS011;20127;48.962;8.342;2023-06-19T16:30:36;4.38;;;3.97;;
33824;SDS011;20127;48.962;8.342;2023-06-19T16:33:37;6.00;;;4.22;;
33824;SDS011;20127;48.962;8.342;2023-06-19T16:36:41;4.82;;;3.67;;
33824;SDS011;20127;48.962;8.342;2023-06-19T16:39:42;9.27;;;4.03;;
33824;SDS011;20127;48.962;8.342;2023-06-19T16:42:44;9.52;;;4.95;;
33824;SDS011;20127;48.962;8.342;2023-06-19T16:45:46;4.18;;;3.80;;
33824;SDS011;20127;48.962;8.342;2023-06-19T16:48:47;4.70;;;3.70;;
33824;SDS011;20127;48.962;8.342;2023-06-19T16:51:50;3.88;;;3.58;;
33824;SDS011;20127;48.962;8.342;2023-06-19T16:54:52;4.82;;;4.10;;
33824;SDS011;20127;48.962;8.342;2023-06-19T16:57:54;7.25;;;4.15;;
33824;SDS011;20127;48.962;8.342;2023-06-19T17:00:55;4.25;;;3.95;;
33824;SDS011;20127;48.962;8.342;2023-06-19T17:03:57;4.95;;;4.25;;
33824;SDS011;20127;48.962;8.342;2023-06-19T17:07:00;4.45;;;4.05;;
33824;SDS011;20127;48.962;8.342;2023-06-19T17:10:02;4.60;;;4.20;;
33824;SDS011;20127;48.962;8.342;2023-06-19T17:13:04;5.05;;;4.13;;
33824;SDS011;20127;48.962;8.342;2023-06-19T17:16:05;5.43;;;4.70;;
33824;SDS011;20127;48.962;8.342;2023-06-19T17:19:07;4.53;;;4.13;;
33824;SDS011;20127;48.962;8.342;2023-06-19T17:22:10;5.57;;;4.53;;
33824;SDS011;20127;48.962;8.342;2023-06-19T17:25:12;5.82;;;4.78;;
33824;SDS011;20127;48.962;8.342;2023-06-19T17:28:14;5.57;;;5.07;;
33824;SDS011;20127;48.962;8.342;2023-06-19T17:31:16;5.75;;;4.03;;
33824;SDS011;20127;48.962;8.342;2023-06-19T17:34:18;5.32;;;4.70;;
33824;SDS011;20127;48.962;8.342;2023-06-19T17:37:21;5.10;;;4.70;;
33824;SDS011;20127;48.962;8.342;2023-06-19T17:40:23;5.40;;;4.57;;
33824;SDS011;20127;48.962;8.342;2023-06-19T17:43:25;5.32;;;4.75;;
33824;SDS011;20127;48.962;8.342;2023-06-19T17:46:26;4.70;;;4.30;;
33824;SDS011;20127;48.962;8.342;2023-06-19T17:49:28;6.25;;;4.45;;
33824;SDS011;20127;48.962;8.342;2023-06-19T17:52:31;6.22;;;4.70;;
33824;SDS011;20127;48.962;8.342;2023-06-19T17:55:33;5.50;;;5.00;;
33824;SDS011;20127;48.962;8.342;2023-06-19T17:58:35;5.85;;;5.15;;
33824;SDS011;20127;48.962;8.342;2023-06-19T18:01:36;5.30;;;4.90;;
33824;SDS011;20127;48.962;8.342;2023-06-19T18:04:38;4.95;;;4.43;;
33824;SDS011;20127;48.962;8.342;2023-06-19T18:07:41;5.43;;;4.93;;
33824;SDS011;20127;48.962;8.342;2023-06-19T18:10:43;7.85;;;4.82;;
33824;SDS011;20127;48.962;8.342;2023-06-19T18:13:45;5.57;;;4.53;;
33824;SDS011;20127;48.962;8.342;2023-06-19T18:16:47;4.22;;;3.85;;
33824;SDS011;20127;48.962;8.342;2023-06-19T18:19:48;5.32;;;4.93;;
33824;SDS011;20127;48.962;8.342;2023-06-19T18:22:51;13.15;;;5.03;;